Observation data for Plains on 11/18/2019      Previous  Date  Next       Current Mesonet Observations  Soil Data  Daily Summary Page  Observations in Plain Language
KPPS 180600Z 22005KT 05/00 A3009 RMK A01 T00490002  RH  073%=      5-min Rain = 0
KPPS 180605Z 22005KT 04/00 A3009 RMK A01 T004400-0  RH  074%=      5-min Rain = 0
KPPS 180610Z 22005KT 04/M00 A3009 RMK A01 T00391001  RH  076%=      5-min Rain = 0
KPPS 180615Z 23005KT 04/M00 A3009 RMK A01 T00371001  RH  077%=      5-min Rain = 0
KPPS 180620Z 22005KT 04/M00 A3009 RMK A01 T00371001  RH  077%=      5-min Rain = 0
KPPS 180625Z 23006KT 04/M00 A3009 RMK A01 T00391001  RH  076%=      5-min Rain = 0
KPPS 180630Z 23006KT 04/M00 A3008 RMK A01 T00371002  RH  077%=      5-min Rain = 0
KPPS 180635Z 23006KT 04/M00 A3008 RMK A01 T00361002  RH  077%=      5-min Rain = 0
KPPS 180640Z 23006KT 04/M00 A3008 RMK A01 T00371001  RH  077%=      5-min Rain = 0
KPPS 180645Z 23006KT 04/M00 A3008 RMK A01 T00371002  RH  077%=      5-min Rain = 0
KPPS 180650Z 23006KT 04/M00 A3007 RMK A01 T00351003  RH  077%=      5-min Rain = 0
KPPS 180655Z 23006KT 04/M00 A3007 RMK A01 T00371001  RH  077%=      5-min Rain = 0
KPPS 180700Z 23006KT 04/M00 A3007 RMK A01 T00371001  RH  077%=      5-min Rain = 0
KPPS 180705Z 23006KT 03/M00 A3007 RMK A01 T00331003  RH  078%=      5-min Rain = 0
KPPS 180710Z 23006KT 03/M00 A3006 RMK A01 T00321002  RH  079%=      5-min Rain = 0
KPPS 180715Z 23006KT 03/00 A3006 RMK A01 T003300-0  RH  080%=      5-min Rain = 0
KPPS 180720Z 23006KT 03/M00 A3006 RMK A01 T00311002  RH  080%=      5-min Rain = 0
KPPS 180725Z 23006KT 03/M00 A3006 RMK A01 T00301003  RH  080%=      5-min Rain = 0
KPPS 180730Z 23006KT 03/M00 A3006 RMK A01 T00291003  RH  080%=      5-min Rain = 0
KPPS 180735Z 23007KT 03/M00 A3006 RMK A01 T00271004  RH  081%=      5-min Rain = 0
KPPS 180740Z 24007KT 02/M01 A3006 RMK A01 T00241005  RH  082%=      5-min Rain = 0
KPPS 180745Z 24006KT 02/M01 A3006 RMK A01 T00241005  RH  082%=      5-min Rain = 0
KPPS 180750Z 24006KT 02/M01 A3006 RMK A01 T00221007  RH  082%=      5-min Rain = 0
KPPS 180755Z 25005KT 02/M01 A3005 RMK A01 T00211007  RH  083%=      5-min Rain = 0
KPPS 180800Z 25005KT 02/M01 A3005 RMK A01 T00201008  RH  083%=      5-min Rain = 0
KPPS 180805Z 25006KT 02/M01 A3005 RMK A01 T00181008  RH  084%=      5-min Rain = 0
KPPS 180810Z 25006KT 02/M01 A3005 RMK A01 T00171008  RH  084%=      5-min Rain = 0
KPPS 180815Z 25006KT 01/M01 A3005 RMK A01 T00141011  RH  084%=      5-min Rain = 0
KPPS 180820Z 25006KT 01/M01 A3005 RMK A01 T00121011  RH  086%=      5-min Rain = 0
KPPS 180825Z 24006KT 01/M01 A3005 RMK A01 T00121011  RH  085%=      5-min Rain = 0
KPPS 180830Z 24006KT 01/M01 A3005 RMK A01 T00091012  RH  086%=      5-min Rain = 0
KPPS 180835Z 24006KT 01/M01 A3004 RMK A01 T00091012  RH  087%=      5-min Rain = 0
KPPS 180840Z 24006KT 01/M01 A3004 RMK A01 T00081013  RH  087%=      5-min Rain = 0
KPPS 180845Z 24006KT 01/M01 A3004 RMK A01 T00081012  RH  087%=      5-min Rain = 0
KPPS 180850Z 24006KT 01/M01 A3004 RMK A01 T00101011  RH  087%=      5-min Rain = 0
KPPS 180855Z 24006KT 01/M01 A3004 RMK A01 T00101012  RH  086%=      5-min Rain = 0
KPPS 180900Z 24007KT 01/M01 A3004 RMK A01 T00081013  RH  087%=      5-min Rain = 0
KPPS 180905Z 24007KT 01/M01 A3003 RMK A01 T00081013  RH  087%=      5-min Rain = 0
KPPS 180910Z 23007KT 01/M01 A3003 RMK A01 T00141009  RH  086%=      5-min Rain = 0
KPPS 180915Z 23007KT 02/M01 A3003 RMK A01 T00211006  RH  083%=      5-min Rain = 0
KPPS 180920Z 23007KT 02/M01 A3002 RMK A01 T00241006  RH  081%=      5-min Rain = 0
KPPS 180925Z 23007KT 02/M01 A3002 RMK A01 T00211009  RH  081%=      5-min Rain = 0
KPPS 180930Z 23007KT 02/M01 A3002 RMK A01 T00171010  RH  083%=      5-min Rain = 0
KPPS 180935Z 23007KT 02/M01 A3002 RMK A01 T00181008  RH  084%=      5-min Rain = 0
KPPS 180940Z 23007KT 02/M01 A3002 RMK A01 T00221005  RH  083%=      5-min Rain = 0
KPPS 180945Z 23007KT 03/M01 A3002 RMK A01 T00251006  RH  081%=      5-min Rain = 0
KPPS 180950Z 24007KT 03/M01 A3002 RMK A01 T00251005  RH  081%=      5-min Rain = 0
KPPS 180955Z 24007KT 03/M01 A3002 RMK A01 T00261005  RH  081%=      5-min Rain = 0
KPPS 181000Z 24007KT 03/M00 A3002 RMK A01 T00271004  RH  081%=      5-min Rain = 0
KPPS 181005Z 24007KT 03/M00 A3002 RMK A01 T00291003  RH  080%=      5-min Rain = 0
KPPS 181010Z 24006KT 03/M00 A3002 RMK A01 T00301003  RH  080%=      5-min Rain = 0
KPPS 181015Z 24006KT 03/M00 A3002 RMK A01 T00281004  RH  080%=      5-min Rain = 0
KPPS 181020Z 23006KT 03/M00 A3001 RMK A01 T00271004  RH  081%=      5-min Rain = 0
KPPS 181025Z 24006KT 03/M01 A3001 RMK A01 T00271005  RH  081%=      5-min Rain = 0
KPPS 181030Z 24005KT 02/M01 A3001 RMK A01 T00231007  RH  082%=      5-min Rain = 0
KPPS 181035Z 23006KT 02/M01 A3001 RMK A01 T00231005  RH  082%=      5-min Rain = 0
KPPS 181040Z 23007KT 03/M01 A30 RMK A01 T00261005  RH  081%=      5-min Rain = 0
KPPS 181045Z 24007KT 03/M01 A30 RMK A01 T00261006  RH  081%=      5-min Rain = 0
KPPS 181050Z 25007KT 01/M02 A30 RMK A01 T00131015  RH  082%=      5-min Rain = 0
KPPS 181055Z 25006KT 01/M02 A30 RMK A01 T00061015  RH  086%=      5-min Rain = 0
KPPS 181100Z 25007KT 01/M01 A30 RMK A01 T00051014  RH  088%=      5-min Rain = 0
KPPS 181105Z 25007KT 00/M02 A30 RMK A01 T00041015  RH  088%=      5-min Rain = 0
KPPS 181110Z 24008KT 01/M01 A2999 RMK A01 T00081010  RH  089%=      5-min Rain = 0
KPPS 181115Z 25007KT 01/M01 A2999 RMK A01 T00091012  RH  087%=      5-min Rain = 0
KPPS 181120Z 24007KT 01/M01 A2999 RMK A01 T00111010  RH  087%=      5-min Rain = 0
KPPS 181125Z 25006KT 01/M01 A2999 RMK A01 T00081013  RH  086%=      5-min Rain = 0
KPPS 181130Z 24006KT 00/M02 A2999 RMK A01 T00041015  RH  088%=      5-min Rain = 0
KPPS 181135Z 24007KT 00/M02 A2999 RMK A01 T00031015  RH  088%=      5-min Rain = 0
KPPS 181140Z 24007KT 00/M01 A2999 RMK A01 T00031014  RH  089%=      5-min Rain = 0
KPPS 181145Z 24008KT 00/M02 A2999 RMK A01 T00011017  RH  089%=      5-min Rain = 0
KPPS 181150Z 24008KT 00/M01 A2999 RMK A01 T00031013  RH  090%=      5-min Rain = 0
KPPS 181155Z 24008KT 01/M01 A2999 RMK A01 T00121009  RH  087%=      5-min Rain = 0
KPPS 181200Z 24008KT 01/M02 A2999 RMK A01 T00081015  RH  085%=      5-min Rain = 0
KPPS 181205Z 24007KT 01/M01 A2999 RMK A01 T00081014  RH  086%=      5-min Rain = 0
KPPS 181210Z 24008KT 01/M01 A2999 RMK A01 T00081014  RH  086%=      5-min Rain = 0
KPPS 181215Z 24008KT 02/M01 A2998 RMK A01 T00151009  RH  085%=      5-min Rain = 0
KPPS 181220Z 24007KT 02/M01 A2998 RMK A01 T00161011  RH  083%=      5-min Rain = 0
KPPS 181225Z 24008KT 02/M01 A2998 RMK A01 T00231006  RH  082%=      5-min Rain = 0
KPPS 181230Z 24009KT 04/M00 A2998 RMK A01 T00351002  RH  078%=      5-min Rain = 0
KPPS 181235Z 24008KT 04/M00 A2998 RMK A01 T00411001  RH  075%=      5-min Rain = 0
KPPS 181240Z 24009KT 05/00 A2998 RMK A01 T00450000  RH  074%=      5-min Rain = 0
KPPS 181245Z 24009KT 05/00 A2998 RMK A01 T00460000  RH  073%=      5-min Rain = 0
KPPS 181250Z 24009KT 05/00 A2998 RMK A01 T00470001  RH  073%=      5-min Rain = 0
KPPS 181255Z 24008KT 05/00 A2998 RMK A01 T00450001  RH  074%=      5-min Rain = 0
KPPS 181300Z 24009KT 05/00 A2998 RMK A01 T00450001  RH  074%=      5-min Rain = 0
KPPS 181305Z 25008KT 04/00 A2999 RMK A01 T00440001  RH  074%=      5-min Rain = 0
KPPS 181310Z 25009G14KT 05/00 A2999 RMK A01 T00470003  RH  074%=      5-min Rain = 0
KPPS 181315Z 25008KT 05/00 A2999 RMK A01 T00500002  RH  072%=      5-min Rain = 0
KPPS 181320Z 25009KT 05/00 A2999 RMK A01 T00490003  RH  073%=      5-min Rain = 0
KPPS 181325Z 24009KT 05/00 A2998 RMK A01 T00510004  RH  073%=      5-min Rain = 0
KPPS 181330Z 24008KT 05/00 A2999 RMK A01 T00530003  RH  071%=      5-min Rain = 0
KPPS 181335Z 24008KT 05/00 A2999 RMK A01 T00520003  RH  071%=      5-min Rain = 0
KPPS 181340Z 25007KT 05/00 A2999 RMK A01 T00490002  RH  072%=      5-min Rain = 0
KPPS 181345Z 25008KT 05/00 A2999 RMK A01 T00460001  RH  074%=      5-min Rain = 0
KPPS 181350Z 25007KT 04/00 A2999 RMK A01 T00410001  RH  076%=      5-min Rain = 0
KPPS 181355Z 26007KT 04/00 A30 RMK A01 T00430003  RH  076%=      5-min Rain = 0
KPPS 181400Z 26006KT 05/00 A30 RMK A01 T00470004  RH  075%=      5-min Rain = 0
KPPS 181405Z 26007KT 05/01 A30 RMK A01 T00490005  RH  074%=      5-min Rain = 0
KPPS 181410Z 26006KT 05/01 A30 RMK A01 T00500006  RH  074%=      5-min Rain = 0
KPPS 181415Z 26007KT 05/01 A30 RMK A01 T00520007  RH  074%=      5-min Rain = 0
KPPS 181420Z 26007KT 05/01 A30 RMK A01 T00540009  RH  074%=      5-min Rain = 0
KPPS 181425Z 26007KT 06/01 A30 RMK A01 T00570010  RH  073%=      5-min Rain = 0
KPPS 181430Z 26007KT 06/01 A30 RMK A01 T00630013  RH  071%=      5-min Rain = 0
KPPS 181435Z 26006KT 07/02 A30 RMK A01 T00670015  RH  070%=      5-min Rain = 0
KPPS 181440Z 26005KT 07/02 A30 RMK A01 T00720017  RH  069%=      5-min Rain = 0
KPPS 181445Z 26005KT 08/02 A30 RMK A01 T00770018  RH  067%=      5-min Rain = 0
KPPS 181450Z 26005KT 08/02 A30 RMK A01 T00810018  RH  065%=      5-min Rain = 0
KPPS 181455Z 26005KT 09/02 A30 RMK A01 T00850019  RH  064%=      5-min Rain = 0
KPPS 181500Z 26006KT 09/02 A3001 RMK A01 T00900020  RH  062%=      5-min Rain = 0
KPPS 181505Z 25006KT 10/02 A3001 RMK A01 T00970020  RH  060%=      5-min Rain = 0
KPPS 181510Z 26006KT 10/02 A3001 RMK A01 T01030020  RH  057%=      5-min Rain = 0
KPPS 181515Z 27006KT 11/02 A3001 RMK A01 T01090020  RH  055%=      5-min Rain = 0
KPPS 181520Z 26006KT 11/02 A3001 RMK A01 T01140021  RH  053%=      5-min Rain = 0
KPPS 181525Z 26007KT 12/02 A3001 RMK A01 T01190017  RH  050%=      5-min Rain = 0
KPPS 181530Z 26007KT 13/02 A3001 RMK A01 T01260017  RH  048%=      5-min Rain = 0
KPPS 181535Z 26008KT 13/02 A3001 RMK A01 T01300015  RH  046%=      5-min Rain = 0
KPPS 181540Z 26009KT 14/01 A3001 RMK A01 T01350010  RH  043%=      5-min Rain = 0
KPPS 181545Z 26009KT 14/01 A3001 RMK A01 T01410008  RH  041%=      5-min Rain = 0
KPPS 181550Z 26009KT 15/01 A30 RMK A01 T01490007  RH  039%=      5-min Rain = 0
KPPS 181555Z 27010KT 15/00 A30 RMK A01 T01520002  RH  036%=      5-min Rain = 0
KPPS 181600Z 27011KT 15/00 A30 RMK A01 T01540002  RH  036%=      5-min Rain = 0
KPPS 181605Z 27010KT 16/00 A30 RMK A01 T01570003  RH  036%=      5-min Rain = 0
KPPS 181610Z 28011G16KT 16/00 A30 RMK A01 T01610000  RH  034%=      5-min Rain = 0
KPPS 181615Z 28013KT 17/M01 A30 RMK A01 T01681008  RH  030%=      5-min Rain = 0
KPPS 181620Z 28013KT 17/M01 A30 RMK A01 T01721013  RH  029%=      5-min Rain = 0
KPPS 181625Z 28013KT 17/M01 A2999 RMK A01 T01741010  RH  029%=      5-min Rain = 0
KPPS 181630Z 29013KT 18/M01 A2999 RMK A01 T01781014  RH  027%=      5-min Rain = 0
KPPS 181635Z 29014KT 18/M02 A2999 RMK A01 T01791020  RH  026%=      5-min Rain = 0
KPPS 181640Z 29015KT 18/M02 A2999 RMK A01 T01791021  RH  026%=      5-min Rain = 0
KPPS 181645Z 29013G18KT 18/M02 A2999 RMK A01 T01821019  RH  026%=      5-min Rain = 0
KPPS 181650Z 30015G20KT 18/M02 A2999 RMK A01 T01831023  RH  025%=      5-min Rain = 0
KPPS 181655Z 29015KT 19/M03 A2998 RMK A01 T01851026  RH  024%=      5-min Rain = 0
KPPS 181700Z 30014KT 19/M03 A2999 RMK A01 T01881026  RH  024%=      5-min Rain = 0
KPPS 181705Z 30014G20KT 19/M03 A2999 RMK A01 T01891030  RH  023%=      5-min Rain = 0
KPPS 181710Z 30015KT 19/M03 A2999 RMK A01 T01901031  RH  022%=      5-min Rain = 0
KPPS 181715Z 30015KT 19/M03 A2999 RMK A01 T01911032  RH  022%=      5-min Rain = 0
KPPS 181720Z 30013G18KT 19/M03 A2998 RMK A01 T01921031  RH  022%=      5-min Rain = 0
KPPS 181725Z 30013G18KT 19/M03 A2998 RMK A01 T01941030  RH  022%=      5-min Rain = 0
KPPS 181730Z 31011KT 20/M03 A2998 RMK A01 T01981030  RH  021%=      5-min Rain = 0
KPPS 181735Z 30011G18KT 20/M03 A2998 RMK A01 T02011029  RH  021%=      5-min Rain = 0
KPPS 181740Z 31011KT 20/M03 A2998 RMK A01 T02021030  RH  021%=      5-min Rain = 0
KPPS 181745Z 31010KT 20/M03 A2998 RMK A01 T02021030  RH  021%=      5-min Rain = 0
KPPS 181750Z 32010G16KT 21/M03 A2998 RMK A01 T02071033  RH  020%=      5-min Rain = 0
KPPS 181755Z 32011G16KT 21/M04 A2998 RMK A01 T02081036  RH  019%=      5-min Rain = 0
KPPS 181800Z 32012KT 21/M04 A2997 RMK A01 T02091038  RH  019%=      5-min Rain = 0
KPPS 181805Z 33010KT 21/M04 A2997 RMK A01 T02111039  RH  018%=      5-min Rain = 0
KPPS 181810Z 32009KT 22/M04 A2997 RMK A01 T02161035  RH  018%=      5-min Rain = 0
KPPS 181815Z 34008G13KT 22/M04 A2996 RMK A01 T02171036  RH  018%=      5-min Rain = 0
KPPS 181820Z 34009KT 22/M04 A2996 RMK A01 T02201036  RH  018%=      5-min Rain = 0
KPPS 181825Z 33009KT 22/M04 A2995 RMK A01 T02221037  RH  017%=      5-min Rain = 0
KPPS 181830Z 34009KT 22/M04 A2995 RMK A01 T02201040  RH  017%=      5-min Rain = 0
KPPS 181835Z 35009KT 22/M04 A2995 RMK A01 T02221038  RH  017%=      5-min Rain = 0
KPPS 181840Z 35007KT 22/M04 A2995 RMK A01 T02211039  RH  017%=      5-min Rain = 0
KPPS 181845Z 36008KT 22/M04 A2995 RMK A01 T02241037  RH  017%=      5-min Rain = 0
KPPS 181850Z 01007KT 22/M04 A2995 RMK A01 T02241035  RH  018%=      5-min Rain = 0
KPPS 181855Z 34009G14KT 23/M03 A2994 RMK A01 T02271033  RH  018%=      5-min Rain = 0
KPPS 181900Z 34008KT 23/M03 A2994 RMK A01 T02261034  RH  018%=      5-min Rain = 0
KPPS 181905Z 01007KT 23/M03 A2994 RMK A01 T02291031  RH  017%=      5-min Rain = 0
KPPS 181910Z 35007G13KT 23/M03 A2994 RMK A01 T02321031  RH  017%=      5-min Rain = 0
KPPS 181915Z 34009KT 23/M03 A2993 RMK A01 T02321032  RH  017%=      5-min Rain = 0
KPPS 181920Z 00008KT 23/M03 A2993 RMK A01 T02331032  RH  017%=      5-min Rain = 0
KPPS 181925Z 35008KT 24/M03 A2993 RMK A01 T02351031  RH  017%=      5-min Rain = 0
KPPS 181930Z 35008KT 23/M03 A2993 RMK A01 T02331031  RH  017%=      5-min Rain = 0
KPPS 181935Z 36006KT 24/M03 A2993 RMK A01 T02361027  RH  017%=      5-min Rain = 0
KPPS 181940Z 35008KT 24/M03 A2992 RMK A01 T02361028  RH  017%=      5-min Rain = 0
KPPS 181945Z 36006KT 23/M03 A2992 RMK A01 T02341030  RH  017%=      5-min Rain = 0
KPPS 181950Z 00007G12KT 24/M03 A2992 RMK A01 T02391027  RH  017%=      5-min Rain = 0
KPPS 181955Z 01008KT 24/M03 A2992 RMK A01 T02381028  RH  017%=      5-min Rain = 0
KPPS 182000Z 01006KT 24/M03 A2991 RMK A01 T02381027  RH  017%=      5-min Rain = 0
KPPS 182005Z 01007KT 24/M03 A2991 RMK A01 T02401025  RH  017%=      5-min Rain = 0
KPPS 182010Z 01007KT 24/M03 A2991 RMK A01 T02381025  RH  017%=      5-min Rain = 0
KPPS 182015Z 01004KT 24/M03 A2991 RMK A01 T02391025  RH  017%=      5-min Rain = 0
KPPS 182020Z 01005KT 24/M02 A2991 RMK A01 T02411022  RH  018%=      5-min Rain = 0
KPPS 182025Z 00005KT 24/M02 A2991 RMK A01 T02421022  RH  017%=      5-min Rain = 0
KPPS 182030Z 36004KT 24/M02 A2991 RMK A01 T02421023  RH  017%=      5-min Rain = 0
KPPS 182035Z 00007KT 24/M02 A2991 RMK A01 T02431023  RH  017%=      5-min Rain = 0
KPPS 182040Z 02005KT 24/M02 A299 RMK A01 T02421024  RH  017%=      5-min Rain = 0
KPPS 182045Z 00007KT 24/M02 A2991 RMK A01 T02441022  RH  017%=      5-min Rain = 0
KPPS 182050Z 35007KT 24/M02 A2991 RMK A01 T02421022  RH  017%=      5-min Rain = 0
KPPS 182055Z 00007KT 24/M02 A2991 RMK A01 T02431022  RH  017%=      5-min Rain = 0
KPPS 182100Z 35008KT 24/M02 A2991 RMK A01 T02431020  RH  018%=      5-min Rain = 0
KPPS 182105Z 00007G12KT 24/M02 A2991 RMK A01 T02411022  RH  017%=      5-min Rain = 0
KPPS 182110Z 01008KT 24/M02 A2991 RMK A01 T02421020  RH  018%=      5-min Rain = 0
KPPS 182115Z 01007KT 24/M02 A2991 RMK A01 T02431018  RH  018%=      5-min Rain = 0
KPPS 182120Z 36008KT 24/M02 A2991 RMK A01 T02441018  RH  018%=      5-min Rain = 0
KPPS 182125Z 35008KT 24/M02 A2991 RMK A01 T02431017  RH  018%=      5-min Rain = 0
KPPS 182130Z 35008KT 24/M02 A2991 RMK A01 T02431016  RH  018%=      5-min Rain = 0
KPPS 182135Z 34008KT 24/M02 A2991 RMK A01 T02441016  RH  018%=      5-min Rain = 0
KPPS 182140Z 35008KT 24/M02 A2991 RMK A01 T02441017  RH  018%=      5-min Rain = 0
KPPS 182145Z 35008KT 25/M02 A2991 RMK A01 T02451015  RH  018%=      5-min Rain = 0
KPPS 182150Z 36011KT 25/M02 A2991 RMK A01 T02451017  RH  018%=      5-min Rain = 0
KPPS 182155Z 36010KT 24/M02 A2991 RMK A01 T02431017  RH  018%=      5-min Rain = 0
KPPS 182200Z 35010KT 24/M02 A2991 RMK A01 T02441015  RH  018%=      5-min Rain = 0
KPPS 182205Z 36009KT 24/M02 A2992 RMK A01 T02431016  RH  018%=      5-min Rain = 0
KPPS 182210Z 35008KT 24/M01 A2992 RMK A01 T02441013  RH  018%=      5-min Rain = 0
KPPS 182215Z 34008KT 24/M01 A2992 RMK A01 T02431013  RH  019%=      5-min Rain = 0
KPPS 182220Z 35005KT 24/M01 A2992 RMK A01 T02431011  RH  019%=      5-min Rain = 0
KPPS 182225Z 32005KT 24/M01 A2992 RMK A01 T02421013  RH  019%=      5-min Rain = 0
KPPS 182230Z 00004KT 24/M01 A2992 RMK A01 T02421010  RH  019%=      5-min Rain = 0
KPPS 182235Z 02004KT 24/M01 A2992 RMK A01 T02411009  RH  019%=      5-min Rain = 0
KPPS 182240Z 02004KT 24/M01 A2992 RMK A01 T02411011  RH  019%=      5-min Rain = 0
KPPS 182245Z 01005KT 24/M01 A2992 RMK A01 T02391010  RH  019%=      5-min Rain = 0
KPPS 182250Z 02005KT 24/M01 A2992 RMK A01 T02381010  RH  019%=      5-min Rain = 0
KPPS 182255Z 01004KT 24/M01 A2992 RMK A01 T02381010  RH  020%=      5-min Rain = 0
KPPS 182300Z 00004KT 24/M01 A2992 RMK A01 T02351008  RH  020%=      5-min Rain = 0
KPPS 182305Z 35004KT 23/M00 A2992 RMK A01 T02321003  RH  021%=      5-min Rain = 0
KPPS 182310Z 03005KT 23/M01 A2992 RMK A01 T02301005  RH  021%=      5-min Rain = 0
KPPS 182315Z 04006KT 23/M01 A2992 RMK A01 T02261005  RH  022%=      5-min Rain = 0
KPPS 182320Z 04006KT 22/M01 A2992 RMK A01 T02211005  RH  022%=      5-min Rain = 0
KPPS 182325Z 05005KT 22/M00 A2992 RMK A01 T02151004  RH  023%=      5-min Rain = 0
KPPS 182330Z 04005KT 21/M01 A2993 RMK A01 T02111005  RH  024%=      5-min Rain = 0
KPPS 182335Z 03005KT 21/M01 A2993 RMK A01 T02091006  RH  024%=      5-min Rain = 0
KPPS 182340Z 03005KT 21/M01 A2993 RMK A01 T02071007  RH  024%=      5-min Rain = 0
KPPS 182345Z 03005KT 21/M01 A2993 RMK A01 T02051008  RH  024%=      5-min Rain = 0
KPPS 182350Z 04005KT 20/M01 A2993 RMK A01 T02001008  RH  025%=      5-min Rain = 0
KPPS 182355Z 05005KT 19/M01 A2993 RMK A01 T01851006  RH  028%=      5-min Rain = 0
KPPS 190000Z 04005KT 18/M01 A2994 RMK A01 T01831005  RH  028%=      5-min Rain = 0
KPPS 190005Z 04005KT 19/M01 A2994 RMK A01 T01881007  RH  027%=      5-min Rain = 0
KPPS 190010Z 05006KT 19/M01 A2994 RMK A01 T01851007  RH  028%=      5-min Rain = 0
KPPS 190015Z 05006KT 18/M01 A2994 RMK A01 T01771006  RH  029%=      5-min Rain = 0
KPPS 190020Z 05006KT 17/M01 A2994 RMK A01 T01731006  RH  030%=      5-min Rain = 0
KPPS 190025Z 05005KT 17/M01 A2995 RMK A01 T01721005  RH  030%=      5-min Rain = 0
KPPS 190030Z 05004KT 17/M01 A2995 RMK A01 T01701005  RH  031%=      5-min Rain = 0
KPPS 190035Z 05004KT 17/M01 A2995 RMK A01 T01661005  RH  032%=      5-min Rain = 0
KPPS 190040Z 05005KT 16/M01 A2995 RMK A01 T01631005  RH  032%=      5-min Rain = 0
KPPS 190045Z 04005KT 16/M00 A2995 RMK A01 T01601004  RH  033%=      5-min Rain = 0
KPPS 190050Z 04005KT 16/M01 A2996 RMK A01 T01601005  RH  033%=      5-min Rain = 0
KPPS 190055Z 04005KT 16/M01 A2996 RMK A01 T01611005  RH  033%=      5-min Rain = 0
KPPS 190100Z 04005KT 16/M01 A2996 RMK A01 T01611005  RH  033%=      5-min Rain = 0
KPPS 190105Z 04004KT 16/M01 A2996 RMK A01 T01601005  RH  033%=      5-min Rain = 0
KPPS 190110Z 04004KT 15/M00 A2996 RMK A01 T01531004  RH  035%=      5-min Rain = 0
KPPS 190115Z 04005KT 15/M00 A2996 RMK A01 T01461004  RH  036%=      5-min Rain = 0
KPPS 190120Z 04005KT 15/M00 A2997 RMK A01 T01481004  RH  036%=      5-min Rain = 0
KPPS 190125Z 04006KT 15/M01 A2997 RMK A01 T01491005  RH  035%=      5-min Rain = 0
KPPS 190130Z 04006KT 15/M01 A2997 RMK A01 T01491005  RH  035%=      5-min Rain = 0
KPPS 190135Z 04005KT 15/M01 A2997 RMK A01 T01471005  RH  036%=      5-min Rain = 0
KPPS 190140Z 04005KT 14/M01 A2997 RMK A01 T01441005  RH  036%=      5-min Rain = 0
KPPS 190145Z 04005KT 14/M01 A2997 RMK A01 T01411006  RH  037%=      5-min Rain = 0
KPPS 190150Z 04005KT 14/M01 A2998 RMK A01 T01391005  RH  037%=      5-min Rain = 0
KPPS 190155Z 04006KT 14/M01 A2998 RMK A01 T01381005  RH  038%=      5-min Rain = 0
KPPS 190200Z 04006KT 14/M01 A2998 RMK A01 T01381005  RH  038%=      5-min Rain = 0
KPPS 190205Z 04006KT 14/M01 A2998 RMK A01 T01401005  RH  037%=      5-min Rain = 0
KPPS 190210Z 04005KT 14/M01 A2998 RMK A01 T01401005  RH  037%=      5-min Rain = 0
KPPS 190215Z 04006KT 14/M01 A2998 RMK A01 T01401005  RH  037%=      5-min Rain = 0
KPPS 190220Z 04005KT 14/M01 A2998 RMK A01 T01371005  RH  038%=      5-min Rain = 0
KPPS 190225Z 04005KT 14/M01 A2999 RMK A01 T01371005  RH  038%=      5-min Rain = 0
KPPS 190230Z 04004KT 13/M01 A2999 RMK A01 T01311005  RH  039%=      5-min Rain = 0
KPPS 190235Z 04004KT 12/M01 A2999 RMK A01 T01221005  RH  042%=      5-min Rain = 0
KPPS 190240Z 05004KT 13/M01 A2999 RMK A01 T01251006  RH  041%=      5-min Rain = 0
KPPS 190245Z 05004KT 13/M01 A2999 RMK A01 T01271006  RH  040%=      5-min Rain = 0
KPPS 190250Z 05005KT 13/M01 A2999 RMK A01 T01281005  RH  040%=      5-min Rain = 0
KPPS 190255Z 05005KT 12/M01 A2999 RMK A01 T01211005  RH  042%=      5-min Rain = 0
KPPS 190300Z 04005KT 12/M01 A2999 RMK A01 T01171005  RH  043%=      5-min Rain = 0
KPPS 190305Z 03004KT 10/M01 A2999 RMK A01 T01011005  RH  048%=      5-min Rain = 0
KPPS 190310Z 04004KT 09/M00 A2999 RMK A01 T00931003  RH  051%=      5-min Rain = 0
KPPS 190315Z 04005KT 10/M00 A2999 RMK A01 T01001003  RH  049%=      5-min Rain = 0
KPPS 190320Z 04005KT 10/M00 A2999 RMK A01 T01001003  RH  049%=      5-min Rain = 0
KPPS 190325Z 04004KT 10/M00 A2999 RMK A01 T01011003  RH  049%=      5-min Rain = 0
KPPS 190330Z 04004KT 10/M00 A2999 RMK A01 T01041004  RH  048%=      5-min Rain = 0
KPPS 190335Z 04004KT 11/M01 A2999 RMK A01 T01111005  RH  045%=      5-min Rain = 0
KPPS 190340Z 04004KT 11/M01 A2999 RMK A01 T01111005  RH  045%=      5-min Rain = 0
KPPS 190345Z 05004KT 11/M01 A30 RMK A01 T01121005  RH  045%=      5-min Rain = 0
KPPS 190350Z 06003KT 11/M01 A30 RMK A01 T01111005  RH  045%=      5-min Rain = 0
KPPS 190355Z 07004KT 11/M01 A30 RMK A01 T01081005  RH  046%=      5-min Rain = 0
KPPS 190400Z 06004KT 11/M01 A30 RMK A01 T01081006  RH  046%=      5-min Rain = 0
KPPS 190405Z 06005KT 11/M01 A2999 RMK A01 T01111005  RH  045%=      5-min Rain = 0
KPPS 190410Z 06005KT 12/M01 A2999 RMK A01 T01181005  RH  043%=      5-min Rain = 0
KPPS 190415Z 06006KT 12/M01 A2999 RMK A01 T01211005  RH  042%=      5-min Rain = 0
KPPS 190420Z 06006KT 12/M01 A2999 RMK A01 T01201005  RH  042%=      5-min Rain = 0
KPPS 190425Z 06006KT 12/M01 A30 RMK A01 T01161005  RH  044%=      5-min Rain = 0
KPPS 190430Z 06006KT 11/M01 A30 RMK A01 T01131006  RH  044%=      5-min Rain = 0
KPPS 190435Z 07003KT 11/M01 A30 RMK A01 T01101005  RH  045%=      5-min Rain = 0
KPPS 190440Z 14002KT 10/M00 A30 RMK A01 T00951004  RH  050%=      5-min Rain = 0
KPPS 190445Z 11003KT 10/M00 A30 RMK A01 T01001004  RH  049%=      5-min Rain = 0
KPPS 190450Z 11004KT 11/M01 A2999 RMK A01 T01071005  RH  046%=      5-min Rain = 0
KPPS 190455Z 12004KT 10/M01 A2999 RMK A01 T01001005  RH  049%=      5-min Rain = 0
KPPS 190500Z 11003KT 10/M01 A2999 RMK A01 T00951005  RH  050%=      5-min Rain = 0
KPPS 190505Z 11003KT 10/M01 A2999 RMK A01 T00971005  RH  049%=      5-min Rain = 0
KPPS 190510Z 11003KT 10/M01 A2999 RMK A01 T00951006  RH  050%=      5-min Rain = 0
KPPS 190515Z 11003KT 10/M01 A2999 RMK A01 T00951005  RH  050%=      5-min Rain = 0
KPPS 190520Z 10005KT 10/M01 A2999 RMK A01 T00961005  RH  050%=      5-min Rain = 0
KPPS 190525Z 11004KT 09/M01 A2999 RMK A01 T00891005  RH  052%=      5-min Rain = 0
KPPS 190530Z 12003KT 08/M01 A2999 RMK A01 T00841005  RH  054%=      5-min Rain = 0
KPPS 190535Z 21002KT 07/M00 A2999 RMK A01 T00731004  RH  059%=      5-min Rain = 0
KPPS 190540Z 22003KT 07/M00 A2999 RMK A01 T00691003  RH  061%=      5-min Rain = 0
KPPS 190545Z 23002KT 07/M00 A2999 RMK A01 T00691004  RH  060%=      5-min Rain = 0
KPPS 190550Z 23000KT 07/M00 A2999 RMK A01 T00681004  RH  061%=      5-min Rain = 0
KPPS 190555Z 00000KT 07/M00 A2999 RMK A01 T00711004  RH  059%=      5-min Rain = 0

Page generated in 0.0097 seconds.